sensor_id;sensor_type;location;lat;lon;timestamp;temperature;humidity
68844;DHT22;55850;51.244;6.824;2022-08-01T00:01:00;21.66;77.60
68844;DHT22;55850;51.244;6.824;2022-08-01T00:06:09;21.49;78.18
68844;DHT22;55850;51.244;6.824;2022-08-01T00:11:14;21.78;76.96
68844;DHT22;55850;51.244;6.824;2022-08-01T00:16:19;21.45;78.36
68844;DHT22;55850;51.244;6.824;2022-08-01T00:21:28;21.55;77.99
68844;DHT22;55850;51.244;6.824;2022-08-01T00:26:33;21.53;77.75
68844;DHT22;55850;51.244;6.824;2022-08-01T00:31:41;21.45;78.50
68844;DHT22;55850;51.244;6.824;2022-08-01T00:36:49;21.56;78.00
68844;DHT22;55850;51.244;6.824;2022-08-01T00:41:58;21.58;77.67
68844;DHT22;55850;51.244;6.824;2022-08-01T00:47:04;21.55;77.62
68844;DHT22;55850;51.244;6.824;2022-08-01T00:52:12;21.51;77.34
68844;DHT22;55850;51.244;6.824;2022-08-01T00:57:18;21.20;78.07
68844;DHT22;55850;51.244;6.824;2022-08-01T01:02:43;21.07;78.09
68844;DHT22;55850;51.244;6.824;2022-08-01T01:07:56;21.07;78.18
68844;DHT22;55850;51.244;6.824;2022-08-01T01:13:08;21.17;77.68
68844;DHT22;55850;51.244;6.824;2022-08-01T01:18:17;21.35;77.17
68844;DHT22;55850;51.244;6.824;2022-08-01T01:23:40;21.39;77.04
68844;DHT22;55850;51.244;6.824;2022-08-01T01:29:00;21.46;76.62
68844;DHT22;55850;51.244;6.824;2022-08-01T01:34:07;21.34;77.19
68844;DHT22;55850;51.244;6.824;2022-08-01T01:39:15;21.28;77.27
68844;DHT22;55850;51.244;6.824;2022-08-01T01:44:23;21.27;76.93
68844;DHT22;55850;51.244;6.824;2022-08-01T01:49:33;21.45;76.74
68844;DHT22;55850;51.244;6.824;2022-08-01T01:54:45;21.14;77.36
68844;DHT22;55850;51.244;6.824;2022-08-01T01:59:55;21.11;77.24
68844;DHT22;55850;51.244;6.824;2022-08-01T02:05:02;21.11;77.63
68844;DHT22;55850;51.244;6.824;2022-08-01T02:10:10;21.43;76.30
68844;DHT22;55850;51.244;6.824;2022-08-01T02:15:19;21.21;77.38
68844;DHT22;55850;51.244;6.824;2022-08-01T02:20:27;21.32;76.77
68844;DHT22;55850;51.244;6.824;2022-08-01T02:25:38;21.24;76.88
68844;DHT22;55850;51.244;6.824;2022-08-01T02:31:10;21.24;76.76
68844;DHT22;55850;51.244;6.824;2022-08-01T02:36:17;21.07;77.43
68844;DHT22;55850;51.244;6.824;2022-08-01T02:41:36;21.18;77.20
68844;DHT22;55850;51.244;6.824;2022-08-01T02:46:51;21.20;77.24
68844;DHT22;55850;51.244;6.824;2022-08-01T02:51:58;21.14;77.17
68844;DHT22;55850;51.244;6.824;2022-08-01T02:57:08;21.30;77.24
68844;DHT22;55850;51.244;6.824;2022-08-01T03:02:18;21.12;77.29
68844;DHT22;55850;51.244;6.824;2022-08-01T03:07:24;21.25;76.87
68844;DHT22;55850;51.244;6.824;2022-08-01T03:12:40;21.18;77.26
68844;DHT22;55850;51.244;6.824;2022-08-01T03:17:51;21.17;77.02
68844;DHT22;55850;51.244;6.824;2022-08-01T03:23:00;21.14;77.11
68844;DHT22;55850;51.244;6.824;2022-08-01T03:28:08;21.37;76.98
68844;DHT22;55850;51.244;6.824;2022-08-01T03:33:18;21.08;77.53
68844;DHT22;55850;51.244;6.824;2022-08-01T03:38:25;21.17;77.07
68844;DHT22;55850;51.244;6.824;2022-08-01T03:43:35;21.22;77.02
68844;DHT22;55850;51.244;6.824;2022-08-01T03:48:48;21.41;77.15
68844;DHT22;55850;51.244;6.824;2022-08-01T03:53:54;21.15;77.49
68844;DHT22;55850;51.244;6.824;2022-08-01T03:59:01;21.15;77.28
68844;DHT22;55850;51.244;6.824;2022-08-01T04:04:10;21.05;77.85
68844;DHT22;55850;51.244;6.824;2022-08-01T04:09:16;21.14;77.56
68844;DHT22;55850;51.244;6.824;2022-08-01T04:14:22;21.25;78.10
68844;DHT22;55850;51.244;6.824;2022-08-01T04:19:30;21.17;78.50
68844;DHT22;55850;51.244;6.824;2022-08-01T04:24:36;21.17;78.27
68844;DHT22;55850;51.244;6.824;2022-08-01T04:29:42;21.03;78.76
68844;DHT22;55850;51.244;6.824;2022-08-01T04:34:51;20.90;79.41
68844;DHT22;55850;51.244;6.824;2022-08-01T04:39:58;20.95;79.49
68844;DHT22;55850;51.244;6.824;2022-08-01T04:45:06;21.12;79.08
68844;DHT22;55850;51.244;6.824;2022-08-01T04:50:15;21.08;79.04
68844;DHT22;55850;51.244;6.824;2022-08-01T04:55:27;21.18;78.47
68844;DHT22;55850;51.244;6.824;2022-08-01T05:00:33;21.30;78.30
68844;DHT22;55850;51.244;6.824;2022-08-01T05:05:41;21.31;78.23
68844;DHT22;55850;51.244;6.824;2022-08-01T05:10:46;21.30;78.20
68844;DHT22;55850;51.244;6.824;2022-08-01T05:15:52;21.39;77.31
68844;DHT22;55850;51.244;6.824;2022-08-01T05:21:00;21.32;77.76
68844;DHT22;55850;51.244;6.824;2022-08-01T05:26:06;21.21;78.29
68844;DHT22;55850;51.244;6.824;2022-08-01T05:31:11;21.17;78.07
68844;DHT22;55850;51.244;6.824;2022-08-01T05:36:19;21.25;77.59
68844;DHT22;55850;51.244;6.824;2022-08-01T05:41:24;21.21;77.66
68844;DHT22;55850;51.244;6.824;2022-08-01T05:46:30;21.30;77.36
68844;DHT22;55850;51.244;6.824;2022-08-01T05:51:38;21.48;76.57
68844;DHT22;55850;51.244;6.824;2022-08-01T05:56:43;21.39;76.56
68844;DHT22;55850;51.244;6.824;2022-08-01T06:01:49;21.71;75.29
68844;DHT22;55850;51.244;6.824;2022-08-01T06:06:57;21.69;75.43
68844;DHT22;55850;51.244;6.824;2022-08-01T06:12:04;22.10;73.87
68844;DHT22;55850;51.244;6.824;2022-08-01T06:17:10;22.20;73.81
68844;DHT22;55850;51.244;6.824;2022-08-01T06:22:20;22.13;74.00
68844;DHT22;55850;51.244;6.824;2022-08-01T06:27:26;22.25;74.21
68844;DHT22;55850;51.244;6.824;2022-08-01T06:32:32;22.41;73.36
68844;DHT22;55850;51.244;6.824;2022-08-01T06:37:40;22.58;72.98
68844;DHT22;55850;51.244;6.824;2022-08-01T06:42:47;22.55;72.72
68844;DHT22;55850;51.244;6.824;2022-08-01T06:47:52;22.44;72.18
68844;DHT22;55850;51.244;6.824;2022-08-01T06:53:00;22.41;71.56
68844;DHT22;55850;51.244;6.824;2022-08-01T06:58:06;22.96;70.22
68844;DHT22;55850;51.244;6.824;2022-08-01T07:03:11;23.93;68.26
68844;DHT22;55850;51.244;6.824;2022-08-01T07:08:19;24.70;65.76
68844;DHT22;55850;51.244;6.824;2022-08-01T07:13:26;24.87;63.43
68844;DHT22;55850;51.244;6.824;2022-08-01T07:18:46;24.86;63.70
68844;DHT22;55850;51.244;6.824;2022-08-01T07:23:54;24.52;63.27
68844;DHT22;55850;51.244;6.824;2022-08-01T07:29:01;25.59;62.36
68844;DHT22;55850;51.244;6.824;2022-08-01T07:34:07;24.73;62.67
68844;DHT22;55850;51.244;6.824;2022-08-01T07:39:15;24.76;63.69
68844;DHT22;55850;51.244;6.824;2022-08-01T07:44:23;24.70;63.60
68844;DHT22;55850;51.244;6.824;2022-08-01T07:49:31;24.72;63.07
68844;DHT22;55850;51.244;6.824;2022-08-01T07:54:44;24.96;62.59
68844;DHT22;55850;51.244;6.824;2022-08-01T07:59:53;24.62;62.77
68844;DHT22;55850;51.244;6.824;2022-08-01T08:04:59;24.59;61.76
68844;DHT22;55850;51.244;6.824;2022-08-01T08:10:08;25.07;60.94
68844;DHT22;55850;51.244;6.824;2022-08-01T08:15:14;25.59;58.88
68844;DHT22;55850;51.244;6.824;2022-08-01T08:20:20;25.61;59.29
68844;DHT22;55850;51.244;6.824;2022-08-01T08:25:29;25.49;59.80
68844;DHT22;55850;51.244;6.824;2022-08-01T08:30:36;25.27;60.29
68844;DHT22;55850;51.244;6.824;2022-08-01T08:35:41;25.57;59.46
68844;DHT22;55850;51.244;6.824;2022-08-01T08:40:58;25.45;59.66
68844;DHT22;55850;51.244;6.824;2022-08-01T08:46:05;25.35;60.00
68844;DHT22;55850;51.244;6.824;2022-08-01T08:51:13;25.39;59.87
68844;DHT22;55850;51.244;6.824;2022-08-01T08:56:23;25.51;59.96
68844;DHT22;55850;51.244;6.824;2022-08-01T09:01:32;24.94;60.67
68844;DHT22;55850;51.244;6.824;2022-08-01T09:06:38;25.52;60.03
68844;DHT22;55850;51.244;6.824;2022-08-01T09:11:47;26.80;56.89
68844;DHT22;55850;51.244;6.824;2022-08-01T09:17:08;26.06;57.06
68844;DHT22;55850;51.244;6.824;2022-08-01T09:22:16;25.72;58.79
68844;DHT22;55850;51.244;6.824;2022-08-01T09:27:28;25.54;59.70
68844;DHT22;55850;51.244;6.824;2022-08-01T09:32:34;26.99;54.16
68844;DHT22;55850;51.244;6.824;2022-08-01T09:37:39;26.70;56.45
68844;DHT22;55850;51.244;6.824;2022-08-01T09:43:10;26.82;55.42
68844;DHT22;55850;51.244;6.824;2022-08-01T09:48:17;28.35;53.28
68844;DHT22;55850;51.244;6.824;2022-08-01T09:53:40;27.38;53.77
68844;DHT22;55850;51.244;6.824;2022-08-01T09:58:58;26.58;54.31
68844;DHT22;55850;51.244;6.824;2022-08-01T10:04:09;25.88;57.24
68844;DHT22;55850;51.244;6.824;2022-08-01T10:09:28;26.75;54.31
68844;DHT22;55850;51.244;6.824;2022-08-01T10:14:46;28.02;52.24
68844;DHT22;55850;51.244;6.824;2022-08-01T10:19:52;28.86;49.19
68844;DHT22;55850;51.244;6.824;2022-08-01T10:25:02;28.01;50.38
68844;DHT22;55850;51.244;6.824;2022-08-01T10:30:12;27.73;51.25
68844;DHT22;55850;51.244;6.824;2022-08-01T10:35:25;28.90;49.37
68844;DHT22;55850;51.244;6.824;2022-08-01T10:40:49;28.83;49.02
68844;DHT22;55850;51.244;6.824;2022-08-01T10:45:59;27.32;50.91
68844;DHT22;55850;51.244;6.824;2022-08-01T10:51:05;27.40;50.70
68844;DHT22;55850;51.244;6.824;2022-08-01T10:56:20;27.26;49.63
68844;DHT22;55850;51.244;6.824;2022-08-01T11:01:31;27.32;48.86
68844;DHT22;55850;51.244;6.824;2022-08-01T11:07:01;28.42;48.43
68844;DHT22;55850;51.244;6.824;2022-08-01T11:12:10;28.37;48.54
68844;DHT22;55850;51.244;6.824;2022-08-01T11:17:33;27.23;48.49
68844;DHT22;55850;51.244;6.824;2022-08-01T11:28:28;27.83;48.46
68844;DHT22;55850;51.244;6.824;2022-08-01T11:34:01;28.05;47.10
68844;DHT22;55850;51.244;6.824;2022-08-01T11:39:15;28.79;46.16
68844;DHT22;55850;51.244;6.824;2022-08-01T11:44:22;28.90;45.83
68844;DHT22;55850;51.244;6.824;2022-08-01T11:49:46;29.13;46.24
68844;DHT22;55850;51.244;6.824;2022-08-01T11:55:05;28.55;47.52
68844;DHT22;55850;51.244;6.824;2022-08-01T12:00:13;28.35;46.68
68844;DHT22;55850;51.244;6.824;2022-08-01T12:05:22;27.45;48.97
68844;DHT22;55850;51.244;6.824;2022-08-01T12:10:30;27.32;50.13
68844;DHT22;55850;51.244;6.824;2022-08-01T12:15:51;27.33;50.03
68844;DHT22;55850;51.244;6.824;2022-08-01T12:21:02;27.63;49.58
68844;DHT22;55850;51.244;6.824;2022-08-01T12:26:08;27.66;50.07
68844;DHT22;55850;51.244;6.824;2022-08-01T12:31:33;27.69;49.29
68844;DHT22;55850;51.244;6.824;2022-08-01T12:36:42;27.56;48.67
68844;DHT22;55850;51.244;6.824;2022-08-01T12:41:47;27.59;48.31
68844;DHT22;55850;51.244;6.824;2022-08-01T12:46:53;27.71;48.16
68844;DHT22;55850;51.244;6.824;2022-08-01T12:52:01;27.42;48.08
68844;DHT22;55850;51.244;6.824;2022-08-01T12:57:22;27.15;49.01
68844;DHT22;55850;51.244;6.824;2022-08-01T13:02:31;27.53;48.82
68844;DHT22;55850;51.244;6.824;2022-08-01T13:07:42;27.29;48.33
68844;DHT22;55850;51.244;6.824;2022-08-01T13:12:52;27.30;49.46
68844;DHT22;55850;51.244;6.824;2022-08-01T13:17:59;27.11;49.34
68844;DHT22;55850;51.244;6.824;2022-08-01T13:23:16;26.94;47.92
68844;DHT22;55850;51.244;6.824;2022-08-01T13:28:41;26.90;47.99
68844;DHT22;55850;51.244;6.824;2022-08-01T13:33:47;26.84;49.10
68844;DHT22;55850;51.244;6.824;2022-08-01T13:39:04;27.02;49.55
68844;DHT22;55850;51.244;6.824;2022-08-01T13:44:22;26.47;50.48
68844;DHT22;55850;51.244;6.824;2022-08-01T13:49:28;26.54;51.48
68844;DHT22;55850;51.244;6.824;2022-08-01T13:54:42;26.60;51.42
68844;DHT22;55850;51.244;6.824;2022-08-01T13:59:47;26.70;50.60
68844;DHT22;55850;51.244;6.824;2022-08-01T14:04:54;26.61;50.69
68844;DHT22;55850;51.244;6.824;2022-08-01T14:10:04;26.45;51.33
68844;DHT22;55850;51.244;6.824;2022-08-01T14:15:21;26.50;50.65
68844;DHT22;55850;51.244;6.824;2022-08-01T14:20:40;26.39;52.16
68844;DHT22;55850;51.244;6.824;2022-08-01T14:25:49;26.14;52.57
68844;DHT22;55850;51.244;6.824;2022-08-01T14:31:06;26.17;53.14
68844;DHT22;55850;51.244;6.824;2022-08-01T14:36:12;25.90;53.29
68844;DHT22;55850;51.244;6.824;2022-08-01T14:41:35;25.97;53.41
68844;DHT22;55850;51.244;6.824;2022-08-01T14:46:43;26.19;53.24
68844;DHT22;55850;51.244;6.824;2022-08-01T14:51:59;26.02;53.09
68844;DHT22;55850;51.244;6.824;2022-08-01T14:57:08;25.78;53.83
68844;DHT22;55850;51.244;6.824;2022-08-01T15:02:14;25.81;53.46
68844;DHT22;55850;51.244;6.824;2022-08-01T15:07:20;26.02;53.35
68844;DHT22;55850;51.244;6.824;2022-08-01T15:12:28;25.75;54.02
68844;DHT22;55850;51.244;6.824;2022-08-01T15:17:51;25.81;54.01
68844;DHT22;55850;51.244;6.824;2022-08-01T15:22:57;25.85;53.48
68844;DHT22;55850;51.244;6.824;2022-08-01T15:28:05;25.81;53.98
68844;DHT22;55850;51.244;6.824;2022-08-01T15:33:11;25.73;53.74
68844;DHT22;55850;51.244;6.824;2022-08-01T15:38:16;25.39;54.38
68844;DHT22;55850;51.244;6.824;2022-08-01T15:43:24;25.33;54.60
68844;DHT22;55850;51.244;6.824;2022-08-01T15:48:29;25.41;54.32
68844;DHT22;55850;51.244;6.824;2022-08-01T15:53:41;25.39;53.50
68844;DHT22;55850;51.244;6.824;2022-08-01T15:58:53;25.35;53.86
68844;DHT22;55850;51.244;6.824;2022-08-01T16:03:58;25.27;53.55
68844;DHT22;55850;51.244;6.824;2022-08-01T16:09:07;25.14;53.88
68844;DHT22;55850;51.244;6.824;2022-08-01T16:14:23;25.27;54.09
68844;DHT22;55850;51.244;6.824;2022-08-01T16:19:28;25.27;53.98
68844;DHT22;55850;51.244;6.824;2022-08-01T16:24:33;25.45;53.95
68844;DHT22;55850;51.244;6.824;2022-08-01T16:29:42;25.35;53.77
68844;DHT22;55850;51.244;6.824;2022-08-01T16:34:47;25.21;54.09
68844;DHT22;55850;51.244;6.824;2022-08-01T16:39:52;25.25;53.33
68844;DHT22;55850;51.244;6.824;2022-08-01T16:45:00;25.14;53.67
68844;DHT22;55850;51.244;6.824;2022-08-01T16:50:15;25.30;53.42
68844;DHT22;55850;51.244;6.824;2022-08-01T16:55:30;25.27;53.56
68844;DHT22;55850;51.244;6.824;2022-08-01T17:00:57;25.65;52.09
68844;DHT22;55850;51.244;6.824;2022-08-01T17:06:23;25.27;52.12
68844;DHT22;55850;51.244;6.824;2022-08-01T17:11:28;25.39;52.27
68844;DHT22;55850;51.244;6.824;2022-08-01T17:16:37;25.54;52.07
68844;DHT22;55850;51.244;6.824;2022-08-01T17:21:42;25.37;51.68
68844;DHT22;55850;51.244;6.824;2022-08-01T17:26:48;25.28;51.09
68844;DHT22;55850;51.244;6.824;2022-08-01T17:31:56;25.41;52.05
68844;DHT22;55850;51.244;6.824;2022-08-01T17:37:01;25.46;51.51
68844;DHT22;55850;51.244;6.824;2022-08-01T17:42:07;25.00;51.31
68844;DHT22;55850;51.244;6.824;2022-08-01T17:47:16;25.00;52.13
68844;DHT22;55850;51.244;6.824;2022-08-01T17:52:44;24.73;52.50
68844;DHT22;55850;51.244;6.824;2022-08-01T17:57:50;24.69;52.52
68844;DHT22;55850;51.244;6.824;2022-08-01T18:02:58;24.56;52.64
68844;DHT22;55850;51.244;6.824;2022-08-01T18:08:09;24.66;52.81
68844;DHT22;55850;51.244;6.824;2022-08-01T18:13:19;24.52;52.36
68844;DHT22;55850;51.244;6.824;2022-08-01T18:18:29;24.48;51.53
68844;DHT22;55850;51.244;6.824;2022-08-01T18:23:35;24.56;52.14
68844;DHT22;55850;51.244;6.824;2022-08-01T18:28:44;24.53;51.68
68844;DHT22;55850;51.244;6.824;2022-08-01T18:33:55;24.48;52.25
68844;DHT22;55850;51.244;6.824;2022-08-01T18:39:03;24.32;52.19
68844;DHT22;55850;51.244;6.824;2022-08-01T18:44:13;24.22;52.37
68844;DHT22;55850;51.244;6.824;2022-08-01T18:49:22;24.08;52.38
68844;DHT22;55850;51.244;6.824;2022-08-01T18:54:27;24.08;53.01
68844;DHT22;55850;51.244;6.824;2022-08-01T18:59:33;24.09;52.58
68844;DHT22;55850;51.244;6.824;2022-08-01T19:04:43;24.07;52.96
68844;DHT22;55850;51.244;6.824;2022-08-01T19:09:49;23.97;53.17
68844;DHT22;55850;51.244;6.824;2022-08-01T19:14:54;23.89;53.67
68844;DHT22;55850;51.244;6.824;2022-08-01T19:20:09;24.01;53.61
68844;DHT22;55850;51.244;6.824;2022-08-01T19:25:15;23.95;53.67
68844;DHT22;55850;51.244;6.824;2022-08-01T19:30:20;23.98;53.85
68844;DHT22;55850;51.244;6.824;2022-08-01T19:35:30;23.95;54.06
68844;DHT22;55850;51.244;6.824;2022-08-01T19:40:37;23.42;55.01
68844;DHT22;55850;51.244;6.824;2022-08-01T19:45:43;23.06;56.29
68844;DHT22;55850;51.244;6.824;2022-08-01T19:50:53;22.69;57.38
68844;DHT22;55850;51.244;6.824;2022-08-01T19:55:59;22.67;56.89
68844;DHT22;55850;51.244;6.824;2022-08-01T20:01:06;22.67;57.10
68844;DHT22;55850;51.244;6.824;2022-08-01T20:06:16;22.44;57.82
68844;DHT22;55850;51.244;6.824;2022-08-01T20:11:25;22.50;57.28
68844;DHT22;55850;51.244;6.824;2022-08-01T20:16:31;22.34;58.00
68844;DHT22;55850;51.244;6.824;2022-08-01T20:21:44;22.25;58.11
68844;DHT22;55850;51.244;6.824;2022-08-01T20:27:05;22.16;58.83
68844;DHT22;55850;51.244;6.824;2022-08-01T20:32:12;22.04;59.79
68844;DHT22;55850;51.244;6.824;2022-08-01T20:37:21;21.96;59.58
68844;DHT22;55850;51.244;6.824;2022-08-01T20:42:47;21.85;60.12
68844;DHT22;55850;51.244;6.824;2022-08-01T20:47:54;21.73;60.69
68844;DHT22;55850;51.244;6.824;2022-08-01T20:53:04;21.75;60.69
68844;DHT22;55850;51.244;6.824;2022-08-01T20:58:10;21.58;61.42
68844;DHT22;55850;51.244;6.824;2022-08-01T21:03:18;21.48;61.87
68844;DHT22;55850;51.244;6.824;2022-08-01T21:08:34;21.62;61.59
68844;DHT22;55850;51.244;6.824;2022-08-01T21:13:44;21.46;62.15
68844;DHT22;55850;51.244;6.824;2022-08-01T21:18:54;21.43;62.52
68844;DHT22;55850;51.244;6.824;2022-08-01T21:24:26;21.37;62.68
68844;DHT22;55850;51.244;6.824;2022-08-01T21:29:33;21.18;63.29
68844;DHT22;55850;51.244;6.824;2022-08-01T21:34:43;21.17;63.35
68844;DHT22;55850;51.244;6.824;2022-08-01T21:39:52;21.25;63.25
68844;DHT22;55850;51.244;6.824;2022-08-01T21:45:01;21.07;63.82
68844;DHT22;55850;51.244;6.824;2022-08-01T21:50:07;21.14;63.75
68844;DHT22;55850;51.244;6.824;2022-08-01T21:55:23;20.74;64.63
68844;DHT22;55850;51.244;6.824;2022-08-01T22:00:39;20.62;65.31
68844;DHT22;55850;51.244;6.824;2022-08-01T22:05:47;20.67;64.90
68844;DHT22;55850;51.244;6.824;2022-08-01T22:11:05;20.66;64.86
68844;DHT22;55850;51.244;6.824;2022-08-01T22:16:13;20.69;64.97
68844;DHT22;55850;51.244;6.824;2022-08-01T22:21:25;20.80;64.58
68844;DHT22;55850;51.244;6.824;2022-08-01T22:26:38;20.76;64.87
68844;DHT22;55850;51.244;6.824;2022-08-01T22:31:45;20.69;64.77
68844;DHT22;55850;51.244;6.824;2022-08-01T22:36:52;20.45;65.35
68844;DHT22;55850;51.244;6.824;2022-08-01T22:42:02;20.11;65.79
68844;DHT22;55850;51.244;6.824;2022-08-01T22:47:12;20.23;65.47
68844;DHT22;55850;51.244;6.824;2022-08-01T22:52:27;20.30;65.10
68844;DHT22;55850;51.244;6.824;2022-08-01T22:57:40;20.43;65.09
68844;DHT22;55850;51.244;6.824;2022-08-01T23:02:53;20.40;65.08
68844;DHT22;55850;51.244;6.824;2022-08-01T23:08:03;20.35;65.37
68844;DHT22;55850;51.244;6.824;2022-08-01T23:13:19;20.19;65.86
68844;DHT22;55850;51.244;6.824;2022-08-01T23:18:25;19.96;66.08
68844;DHT22;55850;51.244;6.824;2022-08-01T23:23:32;19.99;66.05
68844;DHT22;55850;51.244;6.824;2022-08-01T23:28:41;20.14;65.50
68844;DHT22;55850;51.244;6.824;2022-08-01T23:33:46;19.95;66.16
68844;DHT22;55850;51.244;6.824;2022-08-01T23:39:04;19.95;65.88
68844;DHT22;55850;51.244;6.824;2022-08-01T23:44:12;19.92;65.73
68844;DHT22;55850;51.244;6.824;2022-08-01T23:49:17;19.92;65.42
68844;DHT22;55850;51.244;6.824;2022-08-01T23:54:27;19.85;65.77
68844;DHT22;55850;51.244;6.824;2022-08-01T23:59:37;19.79;65.51
